Time;durP1;ratioP1;P1;durP2;ratioP2;P2;SDS_P1;SDS_P2;PMS_P1;PMS_P2;Temp;Humidity;BMP_temperature;BMP_pressure;BME280_temperature;BME280_humidity;BME280_pressure;Samples;Min_cycle;Max_cycle;Signal;HPM_P1;HPM_P2
2022/09/22 00:06:30;;;;;;;8.10;4.70;;;;;;;4.03;86.90;100062.59;446954;1275;128954;-67
2022/09/22 00:16:38;;;;;;;7.30;5.20;;;;;;;3.90;86.92;100066.25;447088;1273;142406;-69
2022/09/22 00:26:44;;;;;;;7.40;6.30;;;;;;;3.76;87.11;100064.56;446316;1273;142850;-69
2022/09/22 00:36:50;;;;;;;7.20;6.00;;;;;;;3.68;87.06;100066.38;447045;1273;143131;-69
2022/09/22 00:46:59;;;;;;;10.80;6.70;;;;;;;3.58;87.40;100058.84;447087;1271;142492;-68
2022/09/22 00:57:11;;;;;;;10.10;8.30;;;;;;;3.66;87.92;100056.02;447056;1273;143419;-68
2022/09/22 01:07:18;;;;;;;9.10;5.80;;;;;;;3.59;88.01;100056.23;447071;1273;143890;-68
2022/09/22 01:17:30;;;;;;;8.40;6.90;;;;;;;3.59;88.48;100057.07;446319;1271;142171;-68
2022/09/22 01:28:06;;;;;;;9.10;7.10;;;;;;;3.70;89.17;100062.50;447097;1272;142833;-67
2022/09/22 01:38:15;;;;;;;9.10;7.00;;;;;;;3.88;89.59;100052.11;439678;1273;146292;-67
2022/09/22 01:48:26;;;;;;;10.90;8.30;;;;;;;3.93;89.81;100046.95;444225;1273;200838;-69
2022/09/22 01:58:35;;;;;;;11.40;9.00;;;;;;;4.21;90.65;100047.16;447045;1273;146271;-67
2022/09/22 02:08:47;;;;;;;14.80;11.50;;;;;;;4.39;91.15;100051.64;446303;1273;142675;-68
2022/09/22 02:18:56;;;;;;;22.10;14.20;;;;;;;4.63;91.54;100049.00;445680;1273;143399;-68
2022/09/22 02:29:16;;;;;;;20.60;15.60;;;;;;;4.86;91.99;100049.66;446315;1273;145018;-69
2022/09/22 02:39:28;;;;;;;21.70;16.20;;;;;;;4.98;92.16;100048.20;447074;1273;144500;-68
2022/09/22 02:49:35;;;;;;;12.90;10.60;;;;;;;5.04;92.28;100046.95;447067;1273;143585;-68
2022/09/22 02:59:40;;;;;;;13.40;10.70;;;;;;;5.04;92.17;100045.75;446318;1273;143745;-67
2022/09/22 03:09:46;;;;;;;12.70;9.70;;;;;;;5.02;92.24;100049.98;447066;1273;143031;-70
2022/09/22 03:19:52;;;;;;;22.90;17.50;;;;;;;5.05;92.29;100048.33;447081;1273;142934;-68
2022/09/22 03:29:58;;;;;;;20.40;16.40;;;;;;;5.09;92.29;100042.30;446285;1273;142797;-68
2022/09/22 03:40:05;;;;;;;19.50;13.00;;;;;;;5.18;92.51;100047.87;447059;1273;142596;-68
2022/09/22 03:50:12;;;;;;;20.50;13.60;;;;;;;5.25;92.29;100049.90;439970;1273;143023;-66
2022/09/22 04:00:18;;;;;;;13.60;10.10;;;;;;;5.23;92.11;100052.06;447146;1272;202787;-68
2022/09/22 04:10:25;;;;;;;13.30;8.70;;;;;;;5.20;92.36;100053.02;447079;1273;144073;-67
2022/09/22 04:20:31;;;;;;;20.10;11.50;;;;;;;5.22;92.08;100055.72;446276;1273;142376;-67
2022/09/22 04:30:37;;;;;;;15.80;12.40;;;;;;;5.30;92.24;100054.08;446810;1273;143061;-68
2022/09/22 04:40:42;;;;;;;19.60;12.40;;;;;;;5.40;92.35;100057.70;446951;1273;143002;-69
2022/09/22 04:50:48;;;;;;;19.60;12.50;;;;;;;5.49;92.33;100060.88;445986;1273;144092;-68
2022/09/22 05:00:55;;;;;;;18.00;11.40;;;;;;;5.53;92.14;100058.65;446893;1273;142765;-67
2022/09/22 05:11:02;;;;;;;19.80;12.30;;;;;;;5.63;92.07;100065.77;446140;1273;142535;-66
2022/09/22 05:21:08;;;;;;;17.00;12.10;;;;;;;5.71;91.95;100068.94;446966;1273;196512;-67
2022/09/22 05:31:13;;;;;;;17.50;12.50;;;;;;;5.89;91.89;100065.88;446880;1273;143844;-67
2022/09/22 05:41:19;;;;;;;15.20;12.40;;;;;;;6.16;91.58;100069.42;445712;1275;143053;-68
2022/09/22 05:51:25;;;;;;;15.20;11.60;;;;;;;6.37;91.33;100073.14;446661;1274;143307;-69
2022/09/22 06:01:31;;;;;;;17.40;11.90;;;;;;;6.58;90.96;100076.50;446713;1273;143283;-66
2022/09/22 06:11:37;;;;;;;16.20;11.00;;;;;;;6.79;90.67;100080.38;445899;1275;143670;-68
2022/09/22 06:21:42;;;;;;;14.40;12.60;;;;;;;7.08;90.15;100081.15;446930;1274;144111;-67
2022/09/22 06:31:48;;;;;;;15.80;12.20;;;;;;;7.36;89.90;100086.58;446902;1274;142269;-68
2022/09/22 06:41:56;;;;;;;16.30;13.50;;;;;;;7.62;89.29;100088.24;446100;1273;142723;-68
2022/09/22 06:52:02;;;;;;;18.90;14.20;;;;;;;7.70;88.95;100094.02;447094;1273;142637;-68
2022/09/22 07:02:09;;;;;;;16.30;14.60;;;;;;;7.90;88.68;100096.27;446272;1272;143952;-68
2022/09/22 07:12:16;;;;;;;16.30;14.00;;;;;;;8.08;88.39;100094.04;446960;1271;146190;-68
2022/09/22 07:22:22;;;;;;;18.50;14.00;;;;;;;8.29;88.08;100094.84;446752;1274;143185;-68
2022/09/22 07:32:33;;;;;;;15.90;13.40;;;;;;;8.56;87.86;100094.15;446296;1273;144923;-67
2022/09/22 07:42:39;;;;;;;15.80;13.50;;;;;;;8.91;87.51;100093.04;447040;1272;145502;-68
2022/09/22 07:52:52;;;;;;;14.10;12.40;;;;;;;9.27;86.79;100086.36;446488;1275;143397;-67
2022/09/22 08:02:58;;;;;;;13.90;11.90;;;;;;;9.67;86.49;100085.03;446308;1272;145312;-67
2022/09/22 08:13:04;;;;;;;13.40;11.90;;;;;;;10.08;85.70;100088.31;447063;1271;143236;-68
2022/09/22 08:23:10;;;;;;;12.60;11.10;;;;;;;10.19;84.99;100091.20;446296;1272;143389;-67
2022/09/22 08:33:16;;;;;;;10.80;9.80;;;;;;;10.77;84.89;100095.36;447037;1273;142907;-66
2022/09/22 08:43:22;;;;;;;8.80;8.10;;;;;;;12.00;83.80;100093.77;447047;1272;143120;-68
2022/09/22 08:53:31;;;;;;;8.90;7.60;;;;;;;12.88;81.40;100085.30;431755;1275;187391;-68
2022/09/22 09:03:53;;;;;;;11.30;7.50;;;;;;;13.66;79.54;100089.96;447035;1272;143542;-68
2022/09/22 09:14:12;;;;;;;7.00;6.30;;;;;;;14.19;77.14;100090.53;446912;1271;144154;-65
2022/09/22 09:24:27;;;;;;;6.80;6.20;;;;;;;14.77;75.28;100087.60;446313;1273;200560;-69
2022/09/22 09:34:53;;;;;;;6.30;5.20;;;;;;;15.03;73.56;100087.62;447037;1273;147063;-69
2022/09/22 09:45:01;;;;;;;4.20;3.60;;;;;;;15.79;71.63;100083.54;447086;1272;143200;-67
2022/09/22 09:55:18;;;;;;;3.80;3.00;;;;;;;15.56;69.54;100084.17;447066;1273;142858;-68
2022/09/22 10:05:25;;;;;;;3.60;3.10;;;;;;;15.26;68.62;100087.71;446311;1273;143284;-67
2022/09/22 10:15:32;;;;;;;3.60;3.30;;;;;;;15.20;68.00;100078.83;447058;1273;143194;-68
2022/09/22 10:25:38;;;;;;;3.50;2.30;;;;;;;15.52;67.06;100071.84;447021;1272;142537;-68
2022/09/22 10:35:46;;;;;;;3.90;1.80;;;;;;;15.20;66.60;100076.55;445979;1275;185268;-69
2022/09/22 10:46:07;;;;;;;2.80;1.30;;;;;;;15.21;66.22;100072.39;442836;1275;146071;-67
2022/09/22 10:56:22;;;;;;;4.70;1.40;;;;;;;15.43;64.67;100054.67;445935;1274;143062;-67
2022/09/22 11:17:15;;;;;;;0.70;0.70;;;;;;;15.24;62.82;100045.22;445950;1273;143773;-67
2022/09/22 11:27:27;;;;;;;2.80;1.60;;;;;;;15.50;62.18;100039.52;446444;1274;142455;-67
2022/09/22 11:37:49;;;;;;;4.30;2.40;;;;;;;15.15;62.22;100044.94;446722;1273;142591;-68
2022/09/22 11:48:09;;;;;;;12.80;3.30;;;;;;;14.97;62.80;100042.98;445665;1273;143752;-68
2022/09/22 11:58:19;;;;;;;1.30;1.10;;;;;;;14.80;62.45;100038.39;446761;1273;141528;-67
2022/09/22 12:08:31;;;;;;;2.20;1.10;;;;;;;14.66;61.78;100033.10;443467;1274;142897;-68
2022/09/22 12:18:45;;;;;;;1.30;1.20;;;;;;;14.68;61.17;100032.61;446448;1273;142217;-68
2022/09/22 12:28:51;;;;;;;2.70;1.00;;;;;;;14.64;61.59;100026.84;446844;1274;198232;-68
2022/09/22 12:39:08;;;;;;;1.30;1.20;;;;;;;14.66;61.46;100021.11;445771;1275;143587;-68
2022/09/22 12:49:18;;;;;;;10.80;2.00;;;;;;;14.81;61.46;100013.66;446788;1275;142604;-69
2022/09/22 12:59:55;;;;;;;4.50;1.50;;;;;;;14.83;61.35;100016.68;446024;1275;143897;-68
2022/09/22 13:10:31;;;;;;;1.40;1.20;;;;;;;14.97;60.87;100017.92;446393;1275;143510;-68
2022/09/22 13:20:37;;;;;;;3.10;1.20;;;;;;;14.93;60.25;100011.70;446023;1275;142783;-69
2022/09/22 13:30:44;;;;;;;1.10;0.70;;;;;;;14.53;60.21;100005.64;446416;1275;141728;-67
2022/09/22 13:40:51;;;;;;;1.80;0.60;;;;;;;14.41;59.49;100002.27;446902;1273;145585;-69
2022/09/22 13:51:08;;;;;;;1.50;0.80;;;;;;;14.19;60.02;99997.23;446260;1272;142299;-68
2022/09/22 14:01:17;;;;;;;3.30;1.30;;;;;;;13.89;60.65;99991.79;447095;1273;142431;-69
2022/09/22 14:11:25;;;;;;;4.30;0.70;;;;;;;13.86;61.07;99989.73;446146;1271;142379;-69
2022/09/22 14:21:32;;;;;;;3.70;1.10;;;;;;;13.91;60.19;99992.16;447153;1271;141935;-67
2022/09/22 14:31:41;;;;;;;3.00;1.10;;;;;;;13.72;60.54;99998.08;447143;1271;142506;-69
2022/09/22 14:41:57;;;;;;;1.50;1.20;;;;;;;13.57;60.97;99999.61;446345;1272;143197;-69
2022/09/22 14:52:06;;;;;;;3.00;1.70;;;;;;;13.41;62.33;99994.54;447143;1272;142006;-69
2022/09/22 15:12:39;;;;;;;5.00;1.70;;;;;;;13.22;62.99;99993.23;434533;1273;128979;-67
2022/09/22 15:22:46;;;;;;;1.90;1.30;;;;;;;13.02;62.29;99987.90;439279;1273;186138;-66
2022/09/22 15:32:52;;;;;;;4.80;1.40;;;;;;;12.66;61.92;99984.13;443089;1272;142887;-67
2022/09/22 15:42:58;;;;;;;2.70;1.40;;;;;;;12.31;62.35;99989.02;446625;1275;142292;-69
2022/09/22 15:53:17;;;;;;;3.10;1.90;;;;;;;11.93;62.76;99985.80;438269;1274;143205;-68
2022/09/22 16:03:24;;;;;;;9.60;2.20;;;;;;;11.65;63.45;99989.29;446764;1274;143458;-69
2022/09/22 16:13:31;;;;;;;7.20;2.30;;;;;;;11.45;64.03;99994.88;446708;1275;143324;-68
2022/09/22 16:23:37;;;;;;;5.70;2.20;;;;;;;11.35;64.55;99998.11;446083;1274;147484;-67
2022/09/22 16:33:43;;;;;;;2.40;2.10;;;;;;;11.25;64.91;100001.54;446846;1274;142787;-68
2022/09/22 16:43:49;;;;;;;7.80;2.20;;;;;;;11.14;65.40;100004.10;446669;1275;142294;-69
2022/09/22 16:53:56;;;;;;;3.40;2.60;;;;;;;11.04;65.84;100000.28;446066;1274;143698;-68
2022/09/22 17:04:02;;;;;;;3.60;2.60;;;;;;;10.95;66.40;99998.19;446838;1274;144651;-68
2022/09/22 17:14:12;;;;;;;4.50;3.40;;;;;;;10.86;66.89;100006.42;445857;1275;142321;-67
2022/09/22 17:24:18;;;;;;;6.90;3.10;;;;;;;10.79;67.43;100014.54;446834;1274;143717;-68
2022/09/22 17:34:24;;;;;;;4.50;2.60;;;;;;;10.73;67.86;100014.55;445090;1275;143124;-68
2022/09/22 17:44:32;;;;;;;6.10;3.60;;;;;;;10.67;68.36;100016.15;441900;1273;145989;-69
2022/09/22 18:05:03;;;;;;;5.00;4.20;;;;;;;10.46;69.37;100018.86;446273;1273;142569;-68
2022/09/22 18:15:12;;;;;;;8.10;4.30;;;;;;;10.38;69.78;100024.52;446992;1273;143358;-68
2022/09/22 18:25:22;;;;;;;6.60;4.10;;;;;;;10.34;69.81;100032.31;440241;1272;143039;-68
2022/09/22 18:35:31;;;;;;;7.40;3.60;;;;;;;10.28;70.07;100035.92;433395;1273;144239;-66
2022/09/22 18:45:37;;;;;;;10.60;6.50;;;;;;;10.18;70.14;100027.89;439540;1273;147841;-68
2022/09/22 18:55:43;;;;;;;7.70;4.60;;;;;;;10.10;70.33;100034.80;436426;1273;143632;-67
2022/09/22 19:05:49;;;;;;;8.00;4.80;;;;;;;10.02;70.39;100038.20;438424;1273;142022;-68
2022/09/22 19:15:55;;;;;;;5.30;3.90;;;;;;;9.95;70.57;100040.87;432399;1273;196632;-66
2022/09/22 19:26:03;;;;;;;5.70;4.70;;;;;;;9.86;70.96;100036.13;429377;1274;142213;-67
2022/09/22 19:36:09;;;;;;;6.20;4.10;;;;;;;9.78;71.19;100038.12;436994;1273;143219;-68
2022/09/22 19:46:15;;;;;;;6.40;3.90;;;;;;;9.73;71.51;100043.80;446107;1273;142963;-69
2022/09/22 19:56:21;;;;;;;6.40;5.30;;;;;;;9.68;71.73;100044.56;431044;1274;147648;-69
2022/09/22 20:06:27;;;;;;;9.60;3.60;;;;;;;9.64;72.05;100045.83;432504;1275;147186;-62
2022/09/22 20:16:32;;;;;;;6.20;4.30;;;;;;;9.57;72.41;100043.42;432532;1273;142723;-62
2022/09/22 20:26:39;;;;;;;6.20;4.40;;;;;;;9.53;72.78;100042.72;432226;1273;142522;-61
2022/09/22 20:36:45;;;;;;;7.40;4.10;;;;;;;9.49;72.94;100037.89;430341;1274;143011;-63
2022/09/22 20:46:51;;;;;;;8.80;4.60;;;;;;;9.43;73.25;100035.41;429604;1273;141824;-60
2022/09/22 20:56:57;;;;;;;8.10;4.50;;;;;;;9.36;73.50;100036.79;428536;1275;154537;-62
2022/09/22 21:07:03;;;;;;;5.50;4.90;;;;;;;9.30;73.97;100028.39;429307;1276;142862;-63
2022/09/22 21:17:09;;;;;;;7.30;5.20;;;;;;;9.24;74.46;100027.97;430309;1276;147090;-62
2022/09/22 21:27:15;;;;;;;7.60;6.50;;;;;;;9.15;74.79;100026.00;429853;1273;146617;-62
2022/09/22 21:37:23;;;;;;;9.60;7.70;;;;;;;9.02;75.30;100020.36;430136;1274;142781;-62
2022/09/22 21:47:30;;;;;;;8.50;6.90;;;;;;;8.88;75.93;100029.59;430322;1274;142084;-59
2022/09/22 21:57:35;;;;;;;13.40;8.80;;;;;;;8.69;76.52;100030.35;429888;1274;142271;-62
2022/09/22 22:07:41;;;;;;;9.50;7.70;;;;;;;8.45;76.99;100024.84;432994;1273;143121;-64
2022/09/22 22:17:47;;;;;;;11.50;9.10;;;;;;;8.17;77.66;100021.61;430183;1274;144497;-63
2022/09/22 22:27:55;;;;;;;9.60;8.30;;;;;;;7.89;78.40;100013.86;434510;1273;143278;-65
2022/09/22 22:38:01;;;;;;;11.10;8.30;;;;;;;7.52;78.67;100012.37;445986;1273;142710;-62
2022/09/22 22:48:06;;;;;;;10.10;7.70;;;;;;;7.09;78.97;100011.42;444293;1274;143316;-62
2022/09/22 22:58:12;;;;;;;10.20;8.10;;;;;;;6.76;79.36;100003.92;446950;1273;142500;-63
2022/09/22 23:08:18;;;;;;;8.60;7.60;;;;;;;6.48;80.02;99999.15;446073;1273;142528;-62
2022/09/22 23:18:23;;;;;;;10.00;7.10;;;;;;;6.15;80.23;99992.95;440708;1274;142768;-61
2022/09/22 23:28:32;;;;;;;13.40;8.20;;;;;;;5.83;80.55;99987.05;444100;1275;144972;-63
2022/09/22 23:38:38;;;;;;;9.90;8.50;;;;;;;5.53;80.88;99990.55;446061;1272;142924;-63
2022/09/22 23:48:43;;;;;;;10.00;8.00;;;;;;;5.29;81.49;99995.95;446624;1275;143437;-62
2022/09/22 23:58:49;;;;;;;10.40;8.40;;;;;;;5.06;81.61;99980.95;446804;1274;145974;-63
